FMMI/TNR METAR and TAF weather

Enter ICAO airport designator
Station Type Date Time Source
FMMI METAR 2022/12/05 16:00 UTC NOAA

FMMI 051600Z 09013KT 9999 VCTS SCT020CB 20/16 Q1019 NOSIG


Station Type Date Time Source
FMMI Decoded METAR 2022/12/05 16:00 UTC NOAA

Antananarivo / Ivato, Madagascar (FMMI) 18-48S 047-29E 1276M
Dec 05, 2022 - 11:00 AM EST / 2022.12.05 1600 UTC
Wind: from the E (090 degrees) at 15 MPH (13 KT):0
Visibility: greater than 7 mile(s):0
Sky conditions: partly cloudy
Weather: thunder in the vicinity; Cumulonimbus clouds observed
Temperature: 68 F (20 C)
Dew Point: 60 F (16 C)
Relative Humidity: 77%
Pressure (altimeter): 30.09 in. Hg (1019 hPa)
ob: FMMI 051600Z 09013KT 9999 VCTS SCT020CB 20/16 Q1019 NOSIG
cycle: 16

Station Type Date Time Source
FMMI TAF 2022/12/05 12:03 UTC NOAA

FMMI 051100Z 0512/0618 10008KT 9999 BKN020CB PROB40
TEMPO 0514/0522 VRB18KT 4000 TSRA
BECMG 0520/0522 FEW017 BKN020
BECMG 0608/0610 SCT020CB PROB30
TEMPO 0613/0618 4000 TSRA

Example: see airport list